Doug C. — WTX4517 — position and weather

sailwx.info

Track history (hours):
 
Tides and Currents Weather Stations Pressure Air Temp Water Temp Dewpoint Dewpoint Depression Visibility Wind Speed Wind Dir Waves Ship Positions

Doug C.

Owner: C & C BOATS INC, HUNTINGTON BEACH, CA. More information available from US FCC via Universal Licensing System and Coast Guard Vessel Documentation Center.

Last reported at 2018-Jun-20 13:38 UTC. Time now 2018-Jun-20 14:59 UTC.
Position N 34°26' W 119°55'.

Length 22 m.

Type: Passenger vessel. MMSI: 367090830.

Date/timePositionNaut miles runAvg speedWind from/ knotsBaromVisibWave heightAir tempDewpointWater temp
2018-Jun-20 13:38N 34°26' W 119°55'0 1.6
2018-Jun-20 13:30N 34°26' W 119°56'0 0.0
2018-Jun-20 08:28N 34°26' W 119°55'0 0.0
2018-Jun-20 01:53N 34°26' W 119°55'0 0.0
2018-Jun-20 01:14N 34°26' W 119°55'2 4.6
2018-Jun-20 00:53N 34°24' W 119°55'2 4.1
2018-Jun-20 00:27N 34°26' W 119°55'0 0.0
2018-Jun-19 23:59N 34°26' W 119°55'2 2.2
2018-Jun-19 22:52N 34°23' W 119°55'0 0.0
2018-Jun-19 21:37N 34°23' W 119°55'0 0.0
2018-Jun-19 21:24N 34°23' W 119°55'0 0.0
2018-Jun-19 20:54N 34°23' W 119°55'0 0.0
2018-Jun-19 19:23N 34°23' W 119°55'0 0.1
2018-Jun-19 18:58N 34°23' W 119°55'2 4.7
2018-Jun-19 18:26N 34°26' W 119°55'0 0.3
2018-Jun-19 17:24N 34°26' W 119°55'0 0.0
2018-Jun-19 16:57N 34°26' W 119°55'2 4.5
2018-Jun-19 16:26N 34°23' W 119°54'0 0.0
2018-Jun-19 15:55N 34°23' W 119°54'2 1.5
2018-Jun-19 14:25N 34°26' W 119°55'0 0.0
2018-Jun-19 13:55N 34°26' W 119°55'0 0.5
2018-Jun-19 13:28N 34°26' W 119°55'0 0.1
2018-Jun-19 12:53N 34°26' W 119°55'0 0.0
2018-Jun-19 07:15N 34°26' W 119°55'0 0.0
2018-Jun-19 07:00N 34°26' W 119°55'0 0.0
2018-Jun-19 02:26N 34°26' W 119°55'0 0.0
2018-Jun-19 00:58N 34°26' W 119°55'2 4.6
2018-Jun-19 00:30N 34°23' W 119°55'2 2.9
2018-Jun-18 23:46N 34°26' W 119°55'0 0.0
2018-Jun-18 23:22N 34°26' W 119°55'0 0.8
2018-Jun-18 23:00N 34°25' W 119°56'2 0.8
2018-Jun-18 20:56N 34°24' W 119°55'1 0.5
2018-Jun-18 19:44N 34°23' W 119°55'0 0.0
2018-Jun-18 19:30N 34°23' W 119°55'0 0.0
2018-Jun-18 18:53N 34°23' W 119°55'0 0.4
2018-Jun-18 18:13N 34°23' W 119°54'0 1.1
2018-Jun-18 17:57N 34°23' W 119°54'3 5.2
2018-Jun-18 17:27N 34°26' W 119°55'3 5.3
2018-Jun-18 16:58N 34°23' W 119°54'0 0.3
2018-Jun-18 16:30N 34°23' W 119°54'2 5.0
2018-Jun-18 16:00N 34°26' W 119°55'1 1.1
2018-Jun-18 14:53N 34°25' W 119°56'1 0.7
2018-Jun-18 13:32N 34°26' W 119°55'0 0.5
2018-Jun-18 13:27N 34°26' W 119°55'0 0.5
2018-Jun-18 12:53N 34°26' W 119°55'0 0.1
2018-Jun-18 08:15N 34°26' W 119°55'0 0.0
2018-Jun-18 05:03N 34°26' W 119°55'0 0.0
2018-Jun-18 03:07N 34°26' W 119°55'0 0.0
2018-Jun-18 01:34N 34°26' W 119°55'0 0.0
2018-Jun-18 01:16N 34°26' W 119°55'0 0.8
2018-Jun-18 00:42N 34°25' W 119°56'1 2.6
2018-Jun-18 00:30N 34°26' W 119°55'0 0.0
2018-Jun-17 23:17N 34°26' W 119°55'0 0.0
2018-Jun-17 22:58N 34°26' W 119°55'0 0.0
2018-Jun-17 22:28N 34°26' W 119°55'2 4.8
2018-Jun-17 21:59N 34°23' W 119°54'3 0.3
2018-Jun-17 13:24N 34°26' W 119°55'0 0.0
2018-Jun-17 12:41N 34°26' W 119°55'0 0.0
2018-Jun-17 04:54N 34°26' W 119°55'0 0.0
2018-Jun-17 03:29N 34°26' W 119°55'0 0.0
2018-Jun-17 02:38N 34°26' W 119°55'0 0.0
2018-Jun-17 02:17N 34°26' W 119°55'0 0.0
2018-Jun-17 01:53N 34°26' W 119°55'0 0.0
2018-Jun-17 01:26N 34°26' W 119°55'2 4.3
2018-Jun-17 01:00N 34°24' W 119°55'1 0.2
2018-Jun-16 21:44N 34°23' W 119°54'2 0.9
2018-Jun-16 19:04N 34°26' W 119°55'0 0.0
2018-Jun-16 18:46N 34°26' W 119°55'0 0.0
2018-Jun-16 16:36N 34°26' W 119°55'0 0.0
2018-Jun-16 16:21N 34°26' W 119°55'0 0.0
2018-Jun-16 15:39N 34°26' W 119°55'0 0.0
2018-Jun-16 15:24N 34°26' W 119°55'0 0.0
2018-Jun-16 15:00N 34°26' W 119°55'0 0.0
2018-Jun-16 14:18N 34°26' W 119°55'0 0.0
2018-Jun-16 13:59N 34°26' W 119°55'0 0.6
2018-Jun-16 13:30N 34°26' W 119°55'2 3.9
2018-Jun-16 13:00N 34°24' W 119°55'2 3.2
2018-Jun-16 12:29N 34°26' W 119°55'0 0.1
2018-Jun-16 11:22N 34°26' W 119°55'0 0.0
2018-Jun-16 10:58N 34°26' W 119°55'0 0.0
2018-Jun-16 09:07N 34°26' W 119°55'0 0.0
2018-Jun-16 02:00N 34°26' W 119°55'1 1.5
2018-Jun-16 01:29N 34°25' W 119°56'1 0.4
2018-Jun-15 23:25N 34°26' W 119°55'0 0.3
2018-Jun-15 22:24N 34°25' W 119°56'2 2.4
2018-Jun-15 21:28N 34°23' W 119°55'0 0.1
2018-Jun-15 20:13N 34°23' W 119°54'3 3.8
2018-Jun-15 19:32N 34°26' W 119°55'2 0.9
2018-Jun-15 16:53N 34°23' W 119°55'2 0.6
2018-Jun-15 12:47N 34°26' W 119°55'0 0.0
2018-Jun-15 01:26N 34°26' W 119°55'2 3.5
2018-Jun-15 00:56N 34°24' W 119°55'0 0.1
2018-Jun-15 00:30N 34°24' W 119°55'2 1.5
2018-Jun-14 23:19N 34°26' W 119°55'0 0.0
2018-Jun-14 22:59N 34°26' W 119°55'0 0.1
2018-Jun-14 22:02N 34°26' W 119°55'0 0.0
2018-Jun-14 21:54N 34°26' W 119°55'0 0.0
2018-Jun-14 21:19N 34°26' W 119°55'2 5.5
2018-Jun-14 20:53N 34°23' W 119°54'0 0.5
2018-Jun-14 20:27N 34°23' W 119°55'0 0.0
2018-Jun-14 18:37N 34°23' W 119°55'0 0.0
2018-Jun-14 17:33N 34°23' W 119°55'0 1.6
2018-Jun-14 17:25N 34°23' W 119°54'3 5.0
2018-Jun-14 16:55N 34°26' W 119°55'1 2.8
2018-Jun-14 16:28N 34°25' W 119°56'2 1.7
2018-Jun-14 15:24N 34°23' W 119°55'0 0.7
2018-Jun-14 14:56N 34°24' W 119°55'2 2.7
2018-Jun-14 14:06N 34°26' W 119°55'0 2.7
2018-Jun-14 14:00N 34°26' W 119°55'0 0.1
2018-Jun-14 13:30N 34°26' W 119°55'1 1.2
2018-Jun-14 12:58N 34°25' W 119°56'1 1.1
2018-Jun-14 12:23N 34°26' W 119°55'0 0.0
2018-Jun-14 11:44N 34°26' W 119°55'0 0.0
2018-Jun-14 11:26N 34°26' W 119°55'0 0.0
2018-Jun-14 10:59N 34°26' W 119°55'0 0.0
2018-Jun-14 10:23N 34°26' W 119°55'0 0.0
2018-Jun-14 09:17N 34°26' W 119°55'0 0.0
2018-Jun-14 08:56N 34°26' W 119°55'0 0.0
2018-Jun-14 08:05N 34°26' W 119°55'0 0.0
2018-Jun-14 07:56N 34°26' W 119°55'0 0.0
2018-Jun-14 07:26N 34°26' W 119°55'0 0.0
2018-Jun-14 05:56N 34°26' W 119°55'0 0.0
2018-Jun-14 04:17N 34°26' W 119°55'0 0.0
2018-Jun-14 03:17N 34°26' W 119°55'0 0.0
2018-Jun-14 02:47N 34°26' W 119°55'0 0.0
2018-Jun-14 01:50N 34°26' W 119°55'0 0.0
2018-Jun-14 01:23N 34°26' W 119°55'2 5.7
2018-Jun-14 00:59N 34°23' W 119°54'2 3.1
2018-Jun-14 00:14N 34°26' W 119°55'0 0.0
2018-Jun-13 23:52N 34°26' W 119°55'0 0.0
2018-Jun-13 23:17N 34°26' W 119°55'2 4.3
2018-Jun-13 22:46N 34°23' W 119°55'0 0.1
2018-Jun-13 22:19N 34°23' W 119°55'0 0.2
2018-Jun-13 21:58N 34°23' W 119°55'2 5.1
2018-Jun-13 21:29N 34°26' W 119°55'3 5.2
2018-Jun-13 21:00N 34°23' W 119°54'0 0.2
2018-Jun-13 20:29N 34°23' W 119°54'2 3.9
2018-Jun-13 19:59N 34°25' W 119°56'2 3.7
2018-Jun-13 19:28N 34°23' W 119°54'0 0.4
2018-Jun-13 18:59N 34°23' W 119°55'0 0.0
2018-Jun-13 18:26N 34°23' W 119°55'0 0.0
2018-Jun-13 17:53N 34°23' W 119°55'0 0.0
2018-Jun-13 17:29N 34°23' W 119°55'0 0.0
2018-Jun-13 16:58N 34°23' W 119°55'0 0.0
2018-Jun-13 16:26N 34°23' W 119°55'0 0.0
2018-Jun-13 15:53N 34°23' W 119°55'0 0.2
2018-Jun-13 14:45N 34°23' W 119°54'0 0.2
2018-Jun-13 14:28N 34°23' W 119°54'1 0.5
2018-Jun-13 13:22N 34°24' W 119°55'1 3.1
2018-Jun-13 12:59N 34°25' W 119°56'1 1.4
2018-Jun-13 12:19N 34°26' W 119°55'0 0.0
2018-Jun-13 11:49N 34°26' W 119°55'0 0.0
2018-Jun-13 11:28N 34°26' W 119°55'0 0.0
2018-Jun-13 10:16N 34°26' W 119°55'0 0.0
2018-Jun-13 08:49N 34°26' W 119°55'0 0.0
2018-Jun-13 08:22N 34°26' W 119°55'0 0.0
2018-Jun-13 07:58N 34°26' W 119°55'0 0.0
2018-Jun-13 05:51N 34°26' W 119°55'0 0.0
2018-Jun-13 05:07N 34°26' W 119°55'0 0.0
2018-Jun-13 04:58N 34°26' W 119°55'0 0.0
2018-Jun-13 04:19N 34°26' W 119°55'0 0.0
2018-Jun-13 02:16N 34°26' W 119°55'0 0.0
2018-Jun-13 01:58N 34°26' W 119°55'0 0.0
2018-Jun-13 01:28N 34°26' W 119°55'2 5.0
2018-Jun-13 01:00N 34°23' W 119°54'2 3.4
2018-Jun-13 00:20N 34°26' W 119°55'0 0.0
2018-Jun-12 23:50N 34°26' W 119°55'0 0.6
2018-Jun-12 23:30N 34°26' W 119°55'0 0.4
2018-Jun-12 22:59N 34°26' W 119°55'0 0.0
2018-Jun-12 22:29N 34°26' W 119°55'2 4.4
2018-Jun-12 21:57N 34°23' W 119°54'2 5.0
2018-Jun-12 21:30N 34°26' W 119°55'2 4.3
2018-Jun-12 20:58N 34°23' W 119°54'0 0.0
2018-Jun-12 20:30N 34°23' W 119°54'3 5.1
2018-Jun-12 20:00N 34°26' W 119°55'0 0.5
2018-Jun-12 19:28N 34°26' W 119°55'0 0.2
2018-Jun-12 19:00N 34°26' W 119°55'2 2.9
2018-Jun-12 18:11N 34°23' W 119°54'0 0.1
2018-Jun-12 17:44N 34°23' W 119°54'0 0.3
2018-Jun-12 17:30N 34°23' W 119°54'3 4.9
2018-Jun-12 16:59N 34°26' W 119°55'3 3.6
2018-Jun-12 16:15N 34°23' W 119°54'0 0.2
2018-Jun-12 15:58N 34°23' W 119°54'0 0.1
2018-Jun-12 15:29N 34°23' W 119°54'3 2.7
2018-Jun-12 14:32N 34°26' W 119°55'0 0.5
2018-Jun-12 14:25N 34°26' W 119°55'0 0.6
2018-Jun-12 13:59N 34°26' W 119°55'1 2.7
2018-Jun-12 13:30N 34°24' W 119°56'2 2.9
2018-Jun-12 12:57N 34°26' W 119°55'0 0.2
2018-Jun-12 12:30N 34°26' W 119°55'0 0.2
2018-Jun-12 11:57N 34°26' W 119°55'0 0.5
2018-Jun-12 11:23N 34°26' W 119°55'0 0.0
2018-Jun-12 10:56N 34°26' W 119°55'0 0.0
2018-Jun-12 10:14N 34°26' W 119°55'0 0.0
2018-Jun-12 09:56N 34°26' W 119°55'0 0.0
2018-Jun-12 09:23N 34°26' W 119°55'0 0.0
2018-Jun-12 08:50N 34°26' W 119°55'0 0.0
2018-Jun-12 08:23N 34°26' W 119°55'0 0.0
2018-Jun-12 06:38N 34°26' W 119°55'0 0.0
2018-Jun-12 05:29N 34°26' W 119°55'0 0.0
2018-Jun-12 04:56N 34°26' W 119°55'0 0.0
2018-Jun-12 04:27N 34°26' W 119°55'0 0.0
2018-Jun-12 01:10N 34°26' W 119°55'1 7.9
2018-Jun-12 01:00N 34°24' W 119°56'1 2.3
2018-Jun-12 00:22N 34°26' W 119°55'1 2.3
2018-Jun-11 23:55N 34°25' W 119°56'1 2.1
2018-Jun-11 23:29N 34°26' W 119°55'0 0.0
2018-Jun-11 21:14N 34°26' W 119°55'1 2.5
2018-Jun-11 20:56N 34°25' W 119°56'1 0.4
2018-Jun-11 19:15N 34°26' W 119°55'0 0.0
2018-Jun-11 18:54N 34°26' W 119°55'0 0.0
2018-Jun-11 17:58N 34°26' W 119°55'0 0.0
2018-Jun-11 17:15N 34°26' W 119°55'0 0.0
2018-Jun-11 14:51N 34°26' W 119°55'0 0.2
2018-Jun-11 13:31N 34°26' W 119°55'216.1
2018-Jun-11 13:24N 34°24' W 119°55'1 2.6
2018-Jun-11 13:00N 34°25' W 119°56'1 0.2
2018-Jun-11 10:39N 34°26' W 119°55'0 0.0
2018-Jun-11 10:27N 34°26' W 119°55'0 0.0
2018-Jun-11 06:56N 34°26' W 119°55'0 0.0
2018-Jun-11 06:01N 34°26' W 119°55'0 0.0
2018-Jun-11 05:51N 34°26' W 119°55'0 0.0
2018-Jun-11 04:07N 34°26' W 119°55'0 0.0
2018-Jun-11 03:52N 34°26' W 119°55'0 0.0
2018-Jun-11 03:21N 34°26' W 119°55'0 0.0
2018-Jun-11 02:48N 34°26' W 119°55'0 0.0
2018-Jun-11 01:36N 34°26' W 119°55'0 0.1
2018-Jun-11 01:07N 34°26' W 119°55'1 6.4
2018-Jun-11 01:00N 34°25' W 119°56'1 1.8
2018-Jun-11 00:28N 34°26' W 119°55'2 4.1
2018-Jun-10 23:58N 34°24' W 119°55'2 1.4
2018-Jun-10 22:46N 34°26' W 119°55'0 0.0
2018-Jun-10 19:02N 34°26' W 119°55'0 0.0
2018-Jun-10 18:53N 34°26' W 119°55'0 0.0
2018-Jun-10 14:26N 34°26' W 119°55'  
Track history (hours):
 
Tides and Currents Weather Stations Pressure Air Temp Water Temp Dewpoint Dewpoint Depression Visibility Wind Speed Wind Dir Waves Ship Positions

Doug C.

Owner: C & C BOATS INC, HUNTINGTON BEACH, CA. More information available from US FCC via Universal Licensing System and Coast Guard Vessel Documentation Center.

Last reported at 2018-Jun-20 13:38 UTC. Time now 2018-Jun-20 14:59 UTC.
Position N 34°26' W 119°55'.

Length 22 m.

Type: Passenger vessel. MMSI: 367090830.

Date/timePositionNaut miles runAvg speedWind from/ knotsBaromVisibWave heightAir tempDewpointWater temp
2018-Jun-20 13:38N 34°26' W 119°55'0 1.6
2018-Jun-20 13:30N 34°26' W 119°56'0 0.0
2018-Jun-20 08:28N 34°26' W 119°55'0 0.0
2018-Jun-20 01:53N 34°26' W 119°55'0 0.0
2018-Jun-20 01:14N 34°26' W 119°55'2 4.6
2018-Jun-20 00:53N 34°24' W 119°55'2 4.1
2018-Jun-20 00:27N 34°26' W 119°55'0 0.0
2018-Jun-19 23:59N 34°26' W 119°55'2 2.2
2018-Jun-19 22:52N 34°23' W 119°55'0 0.0
2018-Jun-19 21:37N 34°23' W 119°55'0 0.0
2018-Jun-19 21:24N 34°23' W 119°55'0 0.0
2018-Jun-19 20:54N 34°23' W 119°55'0 0.0
2018-Jun-19 19:23N 34°23' W 119°55'0 0.1
2018-Jun-19 18:58N 34°23' W 119°55'2 4.7
2018-Jun-19 18:26N 34°26' W 119°55'0 0.3
2018-Jun-19 17:24N 34°26' W 119°55'0 0.0
2018-Jun-19 16:57N 34°26' W 119°55'2 4.5
2018-Jun-19 16:26N 34°23' W 119°54'0 0.0
2018-Jun-19 15:55N 34°23' W 119°54'2 1.5
2018-Jun-19 14:25N 34°26' W 119°55'0 0.0
2018-Jun-19 13:55N 34°26' W 119°55'0 0.5
2018-Jun-19 13:28N 34°26' W 119°55'0 0.1
2018-Jun-19 12:53N 34°26' W 119°55'0 0.0
2018-Jun-19 07:15N 34°26' W 119°55'0 0.0
2018-Jun-19 07:00N 34°26' W 119°55'0 0.0
2018-Jun-19 02:26N 34°26' W 119°55'0 0.0
2018-Jun-19 00:58N 34°26' W 119°55'2 4.6
2018-Jun-19 00:30N 34°23' W 119°55'2 2.9
2018-Jun-18 23:46N 34°26' W 119°55'0 0.0
2018-Jun-18 23:22N 34°26' W 119°55'0 0.8
2018-Jun-18 23:00N 34°25' W 119°56'2 0.8
2018-Jun-18 20:56N 34°24' W 119°55'1 0.5
2018-Jun-18 19:44N 34°23' W 119°55'0 0.0
2018-Jun-18 19:30N 34°23' W 119°55'0 0.0
2018-Jun-18 18:53N 34°23' W 119°55'0 0.4
2018-Jun-18 18:13N 34°23' W 119°54'0 1.1
2018-Jun-18 17:57N 34°23' W 119°54'3 5.2
2018-Jun-18 17:27N 34°26' W 119°55'3 5.3
2018-Jun-18 16:58N 34°23' W 119°54'0 0.3
2018-Jun-18 16:30N 34°23' W 119°54'2 5.0
2018-Jun-18 16:00N 34°26' W 119°55'1 1.1
2018-Jun-18 14:53N 34°25' W 119°56'1 0.7
2018-Jun-18 13:32N 34°26' W 119°55'0 0.5
2018-Jun-18 13:27N 34°26' W 119°55'0 0.5
2018-Jun-18 12:53N 34°26' W 119°55'0 0.1
2018-Jun-18 08:15N 34°26' W 119°55'0 0.0
2018-Jun-18 05:03N 34°26' W 119°55'0 0.0
2018-Jun-18 03:07N 34°26' W 119°55'0 0.0
2018-Jun-18 01:34N 34°26' W 119°55'0 0.0
2018-Jun-18 01:16N 34°26' W 119°55'0 0.8
2018-Jun-18 00:42N 34°25' W 119°56'1 2.6
2018-Jun-18 00:30N 34°26' W 119°55'0 0.0
2018-Jun-17 23:17N 34°26' W 119°55'0 0.0
2018-Jun-17 22:58N 34°26' W 119°55'0 0.0
2018-Jun-17 22:28N 34°26' W 119°55'2 4.8
2018-Jun-17 21:59N 34°23' W 119°54'3 0.3
2018-Jun-17 13:24N 34°26' W 119°55'0 0.0
2018-Jun-17 12:41N 34°26' W 119°55'0 0.0
2018-Jun-17 04:54N 34°26' W 119°55'0 0.0
2018-Jun-17 03:29N 34°26' W 119°55'0 0.0
2018-Jun-17 02:38N 34°26' W 119°55'0 0.0
2018-Jun-17 02:17N 34°26' W 119°55'0 0.0
2018-Jun-17 01:53N 34°26' W 119°55'0 0.0
2018-Jun-17 01:26N 34°26' W 119°55'2 4.3
2018-Jun-17 01:00N 34°24' W 119°55'1 0.2
2018-Jun-16 21:44N 34°23' W 119°54'2 0.9
2018-Jun-16 19:04N 34°26' W 119°55'0 0.0
2018-Jun-16 18:46N 34°26' W 119°55'0 0.0
2018-Jun-16 16:36N 34°26' W 119°55'0 0.0
2018-Jun-16 16:21N 34°26' W 119°55'0 0.0
2018-Jun-16 15:39N 34°26' W 119°55'0 0.0
2018-Jun-16 15:24N 34°26' W 119°55'0 0.0
2018-Jun-16 15:00N 34°26' W 119°55'0 0.0
2018-Jun-16 14:18N 34°26' W 119°55'0 0.0
2018-Jun-16 13:59N 34°26' W 119°55'0 0.6
2018-Jun-16 13:30N 34°26' W 119°55'2 3.9
2018-Jun-16 13:00N 34°24' W 119°55'2 3.2
2018-Jun-16 12:29N 34°26' W 119°55'0 0.1
2018-Jun-16 11:22N 34°26' W 119°55'0 0.0
2018-Jun-16 10:58N 34°26' W 119°55'0 0.0
2018-Jun-16 09:07N 34°26' W 119°55'0 0.0
2018-Jun-16 02:00N 34°26' W 119°55'1 1.5
2018-Jun-16 01:29N 34°25' W 119°56'1 0.4
2018-Jun-15 23:25N 34°26' W 119°55'0 0.3
2018-Jun-15 22:24N 34°25' W 119°56'2 2.4
2018-Jun-15 21:28N 34°23' W 119°55'0 0.1
2018-Jun-15 20:13N 34°23' W 119°54'3 3.8
2018-Jun-15 19:32N 34°26' W 119°55'2 0.9
2018-Jun-15 16:53N 34°23' W 119°55'2 0.6
2018-Jun-15 12:47N 34°26' W 119°55'0 0.0
2018-Jun-15 01:26N 34°26' W 119°55'2 3.5
2018-Jun-15 00:56N 34°24' W 119°55'0 0.1
2018-Jun-15 00:30N 34°24' W 119°55'2 1.5
2018-Jun-14 23:19N 34°26' W 119°55'0 0.0
2018-Jun-14 22:59N 34°26' W 119°55'0 0.1
2018-Jun-14 22:02N 34°26' W 119°55'0 0.0
2018-Jun-14 21:54N 34°26' W 119°55'0 0.0
2018-Jun-14 21:19N 34°26' W 119°55'2 5.5
2018-Jun-14 20:53N 34°23' W 119°54'0 0.5
2018-Jun-14 20:27N 34°23' W 119°55'0 0.0
2018-Jun-14 18:37N 34°23' W 119°55'0 0.0
2018-Jun-14 17:33N 34°23' W 119°55'0 1.6
2018-Jun-14 17:25N 34°23' W 119°54'3 5.0
2018-Jun-14 16:55N 34°26' W 119°55'1 2.8
2018-Jun-14 16:28N 34°25' W 119°56'2 1.7
2018-Jun-14 15:24N 34°23' W 119°55'0 0.7
2018-Jun-14 14:56N 34°24' W 119°55'2 2.7
2018-Jun-14 14:06N 34°26' W 119°55'0 2.7
2018-Jun-14 14:00N 34°26' W 119°55'0 0.1
2018-Jun-14 13:30N 34°26' W 119°55'1 1.2
2018-Jun-14 12:58N 34°25' W 119°56'1 1.1
2018-Jun-14 12:23N 34°26' W 119°55'0 0.0
2018-Jun-14 11:44N 34°26' W 119°55'0 0.0
2018-Jun-14 11:26N 34°26' W 119°55'0 0.0
2018-Jun-14 10:59N 34°26' W 119°55'0 0.0
2018-Jun-14 10:23N 34°26' W 119°55'0 0.0
2018-Jun-14 09:17N 34°26' W 119°55'0 0.0
2018-Jun-14 08:56N 34°26' W 119°55'0 0.0
2018-Jun-14 08:05N 34°26' W 119°55'0 0.0
2018-Jun-14 07:56N 34°26' W 119°55'0 0.0
2018-Jun-14 07:26N 34°26' W 119°55'0 0.0
2018-Jun-14 05:56N 34°26' W 119°55'0 0.0
2018-Jun-14 04:17N 34°26' W 119°55'0 0.0
2018-Jun-14 03:17N 34°26' W 119°55'0 0.0
2018-Jun-14 02:47N 34°26' W 119°55'0 0.0
2018-Jun-14 01:50N 34°26' W 119°55'0 0.0
2018-Jun-14 01:23N 34°26' W 119°55'2 5.7
2018-Jun-14 00:59N 34°23' W 119°54'2 3.1
2018-Jun-14 00:14N 34°26' W 119°55'0 0.0
2018-Jun-13 23:52N 34°26' W 119°55'0 0.0
2018-Jun-13 23:17N 34°26' W 119°55'2 4.3
2018-Jun-13 22:46N 34°23' W 119°55'0 0.1
2018-Jun-13 22:19N 34°23' W 119°55'0 0.2
2018-Jun-13 21:58N 34°23' W 119°55'2 5.1
2018-Jun-13 21:29N 34°26' W 119°55'3 5.2
2018-Jun-13 21:00N 34°23' W 119°54'0 0.2
2018-Jun-13 20:29N 34°23' W 119°54'2 3.9
2018-Jun-13 19:59N 34°25' W 119°56'2 3.7
2018-Jun-13 19:28N 34°23' W 119°54'0 0.4
2018-Jun-13 18:59N 34°23' W 119°55'0 0.0
2018-Jun-13 18:26N 34°23' W 119°55'0 0.0
2018-Jun-13 17:53N 34°23' W 119°55'0 0.0
2018-Jun-13 17:29N 34°23' W 119°55'0 0.0
2018-Jun-13 16:58N 34°23' W 119°55'0 0.0
2018-Jun-13 16:26N 34°23' W 119°55'0 0.0
2018-Jun-13 15:53N 34°23' W 119°55'0 0.2
2018-Jun-13 14:45N 34°23' W 119°54'0 0.2
2018-Jun-13 14:28N 34°23' W 119°54'1 0.5
2018-Jun-13 13:22N 34°24' W 119°55'1 3.1
2018-Jun-13 12:59N 34°25' W 119°56'1 1.4
2018-Jun-13 12:19N 34°26' W 119°55'0 0.0
2018-Jun-13 11:49N 34°26' W 119°55'0 0.0
2018-Jun-13 11:28N 34°26' W 119°55'0 0.0
2018-Jun-13 10:16N 34°26' W 119°55'0 0.0
2018-Jun-13 08:49N 34°26' W 119°55'0 0.0
2018-Jun-13 08:22N 34°26' W 119°55'0 0.0
2018-Jun-13 07:58N 34°26' W 119°55'0 0.0
2018-Jun-13 05:51N 34°26' W 119°55'0 0.0
2018-Jun-13 05:07N 34°26' W 119°55'0 0.0
2018-Jun-13 04:58N 34°26' W 119°55'0 0.0
2018-Jun-13 04:19N 34°26' W 119°55'0 0.0
2018-Jun-13 02:16N 34°26' W 119°55'0 0.0
2018-Jun-13 01:58N 34°26' W 119°55'0 0.0
2018-Jun-13 01:28N 34°26' W 119°55'2 5.0
2018-Jun-13 01:00N 34°23' W 119°54'2 3.4
2018-Jun-13 00:20N 34°26' W 119°55'0 0.0
2018-Jun-12 23:50N 34°26' W 119°55'0 0.6
2018-Jun-12 23:30N 34°26' W 119°55'0 0.4
2018-Jun-12 22:59N 34°26' W 119°55'0 0.0
2018-Jun-12 22:29N 34°26' W 119°55'2 4.4
2018-Jun-12 21:57N 34°23' W 119°54'2 5.0
2018-Jun-12 21:30N 34°26' W 119°55'2 4.3
2018-Jun-12 20:58N 34°23' W 119°54'0 0.0
2018-Jun-12 20:30N 34°23' W 119°54'3 5.1
2018-Jun-12 20:00N 34°26' W 119°55'0 0.5
2018-Jun-12 19:28N 34°26' W 119°55'0 0.2
2018-Jun-12 19:00N 34°26' W 119°55'2 2.9
2018-Jun-12 18:11N 34°23' W 119°54'0 0.1
2018-Jun-12 17:44N 34°23' W 119°54'0 0.3
2018-Jun-12 17:30N 34°23' W 119°54'3 4.9
2018-Jun-12 16:59N 34°26' W 119°55'3 3.6
2018-Jun-12 16:15N 34°23' W 119°54'0 0.2
2018-Jun-12 15:58N 34°23' W 119°54'0 0.1
2018-Jun-12 15:29N 34°23' W 119°54'3 2.7
2018-Jun-12 14:32N 34°26' W 119°55'0 0.5
2018-Jun-12 14:25N 34°26' W 119°55'0 0.6
2018-Jun-12 13:59N 34°26' W 119°55'1 2.7
2018-Jun-12 13:30N 34°24' W 119°56'2 2.9
2018-Jun-12 12:57N 34°26' W 119°55'0 0.2
2018-Jun-12 12:30N 34°26' W 119°55'0 0.2
2018-Jun-12 11:57N 34°26' W 119°55'0 0.5
2018-Jun-12 11:23N 34°26' W 119°55'0 0.0
2018-Jun-12 10:56N 34°26' W 119°55'0 0.0
2018-Jun-12 10:14N 34°26' W 119°55'0 0.0
2018-Jun-12 09:56N 34°26' W 119°55'0 0.0
2018-Jun-12 09:23N 34°26' W 119°55'0 0.0
2018-Jun-12 08:50N 34°26' W 119°55'0 0.0
2018-Jun-12 08:23N 34°26' W 119°55'0 0.0
2018-Jun-12 06:38N 34°26' W 119°55'0 0.0
2018-Jun-12 05:29N 34°26' W 119°55'0 0.0
2018-Jun-12 04:56N 34°26' W 119°55'0 0.0
2018-Jun-12 04:27N 34°26' W 119°55'0 0.0
2018-Jun-12 01:10N 34°26' W 119°55'1 7.9
2018-Jun-12 01:00N 34°24' W 119°56'1 2.3
2018-Jun-12 00:22N 34°26' W 119°55'1 2.3
2018-Jun-11 23:55N 34°25' W 119°56'1 2.1
2018-Jun-11 23:29N 34°26' W 119°55'0 0.0
2018-Jun-11 21:14N 34°26' W 119°55'1 2.5
2018-Jun-11 20:56N 34°25' W 119°56'1 0.4
2018-Jun-11 19:15N 34°26' W 119°55'0 0.0
2018-Jun-11 18:54N 34°26' W 119°55'0 0.0
2018-Jun-11 17:58N 34°26' W 119°55'0 0.0
2018-Jun-11 17:15N 34°26' W 119°55'0 0.0
2018-Jun-11 14:51N 34°26' W 119°55'0 0.2
2018-Jun-11 13:31N 34°26' W 119°55'216.1
2018-Jun-11 13:24N 34°24' W 119°55'1 2.6
2018-Jun-11 13:00N 34°25' W 119°56'1 0.2
2018-Jun-11 10:39N 34°26' W 119°55'0 0.0
2018-Jun-11 10:27N 34°26' W 119°55'0 0.0
2018-Jun-11 06:56N 34°26' W 119°55'0 0.0
2018-Jun-11 06:01N 34°26' W 119°55'0 0.0
2018-Jun-11 05:51N 34°26' W 119°55'0 0.0
2018-Jun-11 04:07N 34°26' W 119°55'0 0.0
2018-Jun-11 03:52N 34°26' W 119°55'0 0.0
2018-Jun-11 03:21N 34°26' W 119°55'0 0.0
2018-Jun-11 02:48N 34°26' W 119°55'0 0.0
2018-Jun-11 01:36N 34°26' W 119°55'0 0.1
2018-Jun-11 01:07N 34°26' W 119°55'1 6.4
2018-Jun-11 01:00N 34°25' W 119°56'1 1.8
2018-Jun-11 00:28N 34°26' W 119°55'2 4.1
2018-Jun-10 23:58N 34°24' W 119°55'2 1.4
2018-Jun-10 22:46N 34°26' W 119°55'0 0.0
2018-Jun-10 19:02N 34°26' W 119°55'0 0.0
2018-Jun-10 18:53N 34°26' W 119°55'0 0.0
2018-Jun-10 14:26N 34°26' W 119°55'  

Dump ship's entire track history